Terminal Aerodrome Forecast
Issued by NWS

Home | Current Version | Previous Version | Text Only | Print | Product List | Glossary On
Versions: 1 2 3 4 5 6 7 8 9 10 11 12 13 14
000
FTUS45 KREV 312300
TAFTRK
TAF
KTRK 312329Z 0100/0124 21010G22KT P6SM SCT040 BKN060
     FM010200 24009KT 3SM -RASN SCT010 OVC025
     FM010600 VRB04KT 2SM -SN OVC006
     FM011300 23008KT 4SM -SHSN SCT006 OVC020
     FM012000 24010G22KT P6SM -SHSN SCT020 OVC050
      AMD NOT SKED 0102/0112=

USA.gov is the U.S. government's official web portal to all federal, state and local government web resources and services.